sensor_id;sensor_type;location;lat;lon;timestamp;temperature;humidity
77829;DHT22;67019;51.034;3.728;2023-01-19T00:00:08;1.60;91.30
77829;DHT22;67019;51.034;3.728;2023-01-19T00:02:37;1.70;91.00
77829;DHT22;67019;51.034;3.728;2023-01-19T00:05:05;1.50;91.90
77829;DHT22;67019;51.034;3.728;2023-01-19T00:07:32;1.40;92.10
77829;DHT22;67019;51.034;3.728;2023-01-19T00:15:15;1.10;91.90
77829;DHT22;67019;51.034;3.728;2023-01-19T00:17:44;1.20;92.20
77829;DHT22;67019;51.034;3.728;2023-01-19T00:20:12;1.10;92.60
77829;DHT22;67019;51.034;3.728;2023-01-19T00:22:41;1.00;96.00
77829;DHT22;67019;51.034;3.728;2023-01-19T00:25:09;1.10;92.60
77829;DHT22;67019;51.034;3.728;2023-01-19T00:27:37;1.10;92.60
77829;DHT22;67019;51.034;3.728;2023-01-19T00:30:09;1.10;92.50
77829;DHT22;67019;51.034;3.728;2023-01-19T00:32:35;1.10;92.30
77829;DHT22;67019;51.034;3.728;2023-01-19T00:35:03;1.30;92.50
77829;DHT22;67019;51.034;3.728;2023-01-19T00:37:30;1.10;92.80
77829;DHT22;67019;51.034;3.728;2023-01-19T00:40:03;0.90;95.80
77829;DHT22;67019;51.034;3.728;2023-01-19T00:42:30;1.00;92.80
77829;DHT22;67019;51.034;3.728;2023-01-19T00:45:11;1.00;92.70
77829;DHT22;67019;51.034;3.728;2023-01-19T00:47:42;1.00;92.60
77829;DHT22;67019;51.034;3.728;2023-01-19T00:50:11;1.50;92.80
77829;DHT22;67019;51.034;3.728;2023-01-19T00:52:41;1.00;92.60
77829;DHT22;67019;51.034;3.728;2023-01-19T00:55:10;1.00;92.80
77829;DHT22;67019;51.034;3.728;2023-01-19T00:57:38;1.00;92.60
77829;DHT22;67019;51.034;3.728;2023-01-19T01:00:13;1.00;92.90
77829;DHT22;67019;51.034;3.728;2023-01-19T01:02:41;1.00;92.70
77829;DHT22;67019;51.034;3.728;2023-01-19T01:05:10;0.90;92.80
77829;DHT22;67019;51.034;3.728;2023-01-19T01:07:39;1.10;96.20
77829;DHT22;67019;51.034;3.728;2023-01-19T01:10:21;0.90;93.00
77829;DHT22;67019;51.034;3.728;2023-01-19T01:12:49;0.90;96.30
77829;DHT22;67019;51.034;3.728;2023-01-19T01:15:18;0.90;96.50
77829;DHT22;67019;51.034;3.728;2023-01-19T01:17:45;1.10;96.40
77829;DHT22;67019;51.034;3.728;2023-01-19T01:20:18;0.90;93.10
77829;DHT22;67019;51.034;3.728;2023-01-19T01:22:48;0.70;96.40
77829;DHT22;67019;51.034;3.728;2023-01-19T01:25:18;0.90;92.90
77829;DHT22;67019;51.034;3.728;2023-01-19T01:27:47;0.90;92.90
77829;DHT22;67019;51.034;3.728;2023-01-19T01:30:15;1.00;96.40
77829;DHT22;67019;51.034;3.728;2023-01-19T01:32:43;1.00;93.00
77829;DHT22;67019;51.034;3.728;2023-01-19T01:35:11;0.90;93.00
77829;DHT22;67019;51.034;3.728;2023-01-19T01:37:41;0.90;93.00
77829;DHT22;67019;51.034;3.728;2023-01-19T01:40:14;0.90;93.00
77829;DHT22;67019;51.034;3.728;2023-01-19T01:42:42;0.90;93.00
77829;DHT22;67019;51.034;3.728;2023-01-19T01:45:22;0.90;93.00
77829;DHT22;67019;51.034;3.728;2023-01-19T01:47:45;1.00;92.90
77829;DHT22;67019;51.034;3.728;2023-01-19T01:50:16;0.90;93.10
77829;DHT22;67019;51.034;3.728;2023-01-19T01:52:50;0.90;93.00
77829;DHT22;67019;51.034;3.728;2023-01-19T01:55:14;0.90;93.10
77829;DHT22;67019;51.034;3.728;2023-01-19T01:57:45;1.00;93.20
77829;DHT22;67019;51.034;3.728;2023-01-19T02:00:13;1.00;92.80
77829;DHT22;67019;51.034;3.728;2023-01-19T02:02:42;0.90;93.10
77829;DHT22;67019;51.034;3.728;2023-01-19T02:05:28;0.90;93.30
77829;DHT22;67019;51.034;3.728;2023-01-19T02:08:16;0.90;93.30
77829;DHT22;67019;51.034;3.728;2023-01-19T02:11:02;0.90;93.20
77829;DHT22;67019;51.034;3.728;2023-01-19T02:13:47;0.90;93.40
77829;DHT22;67019;51.034;3.728;2023-01-19T02:16:16;1.10;93.40
77829;DHT22;67019;51.034;3.728;2023-01-19T02:18:43;1.20;93.20
77829;DHT22;67019;51.034;3.728;2023-01-19T02:21:22;1.30;92.80
77829;DHT22;67019;51.034;3.728;2023-01-19T02:23:52;1.40;92.80
77829;DHT22;67019;51.034;3.728;2023-01-19T02:26:26;1.40;92.50
77829;DHT22;67019;51.034;3.728;2023-01-19T02:29:02;1.50;92.60
77829;DHT22;67019;51.034;3.728;2023-01-19T02:31:31;1.50;92.40
77829;DHT22;67019;51.034;3.728;2023-01-19T02:34:02;2.10;93.00
77829;DHT22;67019;51.034;3.728;2023-01-19T02:36:36;1.40;92.70
77829;DHT22;67019;51.034;3.728;2023-01-19T02:39:04;1.30;92.80
77829;DHT22;67019;51.034;3.728;2023-01-19T02:41:37;1.40;92.90
77829;DHT22;67019;51.034;3.728;2023-01-19T02:44:02;1.40;92.80
77829;DHT22;67019;51.034;3.728;2023-01-19T02:46:30;1.40;92.70
77829;DHT22;67019;51.034;3.728;2023-01-19T02:48:59;1.40;92.70
77829;DHT22;67019;51.034;3.728;2023-01-19T02:51:27;1.50;92.80
77829;DHT22;67019;51.034;3.728;2023-01-19T02:56:56;1.50;92.70
77829;DHT22;67019;51.034;3.728;2023-01-19T02:59:29;1.60;92.60
77829;DHT22;67019;51.034;3.728;2023-01-19T03:12:52;1.80;92.20
77829;DHT22;67019;51.034;3.728;2023-01-19T03:15:32;1.90;92.30
77829;DHT22;67019;51.034;3.728;2023-01-19T03:17:52;1.90;92.40
77829;DHT22;67019;51.034;3.728;2023-01-19T03:20:22;1.90;92.60
77829;DHT22;67019;51.034;3.728;2023-01-19T03:22:59;1.90;92.40
77829;DHT22;67019;51.034;3.728;2023-01-19T03:25:28;2.00;92.20
77829;DHT22;67019;51.034;3.728;2023-01-19T03:27:56;2.00;92.30
77829;DHT22;67019;51.034;3.728;2023-01-19T03:30:26;1.90;92.60
77829;DHT22;67019;51.034;3.728;2023-01-19T03:32:58;1.90;93.00
77829;DHT22;67019;51.034;3.728;2023-01-19T03:35:28;2.00;93.00
77829;DHT22;67019;51.034;3.728;2023-01-19T03:37:55;1.90;93.60
77829;DHT22;67019;51.034;3.728;2023-01-19T03:40:25;1.80;94.00
77829;DHT22;67019;51.034;3.728;2023-01-19T03:42:54;1.70;94.20
77829;DHT22;67019;51.034;3.728;2023-01-19T03:45:23;1.90;93.60
77829;DHT22;67019;51.034;3.728;2023-01-19T03:47:51;2.00;93.30
77829;DHT22;67019;51.034;3.728;2023-01-19T03:50:24;2.00;93.70
77829;DHT22;67019;51.034;3.728;2023-01-19T03:53:14;1.90;93.10
77829;DHT22;67019;51.034;3.728;2023-01-19T03:55:40;1.60;93.80
77829;DHT22;67019;51.034;3.728;2023-01-19T03:58:08;1.40;94.40
77829;DHT22;67019;51.034;3.728;2023-01-19T04:00:36;1.40;94.70
77829;DHT22;67019;51.034;3.728;2023-01-19T04:03:05;1.10;97.30
77829;DHT22;67019;51.034;3.728;2023-01-19T04:05:33;1.40;94.50
77829;DHT22;67019;51.034;3.728;2023-01-19T04:08:02;1.30;94.50
77829;DHT22;67019;51.034;3.728;2023-01-19T04:10:30;1.20;95.00
77829;DHT22;67019;51.034;3.728;2023-01-19T04:12:58;1.10;95.10
77829;DHT22;67019;51.034;3.728;2023-01-19T04:15:27;1.10;95.20
77829;DHT22;67019;51.034;3.728;2023-01-19T04:17:59;1.10;95.50
77829;DHT22;67019;51.034;3.728;2023-01-19T04:20:27;1.00;95.10
77829;DHT22;67019;51.034;3.728;2023-01-19T04:22:59;1.10;95.40
77829;DHT22;67019;51.034;3.728;2023-01-19T04:25:27;0.90;95.20
77829;DHT22;67019;51.034;3.728;2023-01-19T04:27:55;1.00;95.40
77829;DHT22;67019;51.034;3.728;2023-01-19T04:30:26;0.80;95.00
77829;DHT22;67019;51.034;3.728;2023-01-19T04:32:54;0.80;95.10
77829;DHT22;67019;51.034;3.728;2023-01-19T04:35:21;0.80;95.20
77829;DHT22;67019;51.034;3.728;2023-01-19T04:37:49;0.60;99.00
77829;DHT22;67019;51.034;3.728;2023-01-19T04:40:17;0.60;95.40
77829;DHT22;67019;51.034;3.728;2023-01-19T04:42:45;-1.40;98.50
77829;DHT22;67019;51.034;3.728;2023-01-19T04:45:13;0.60;95.50
77829;DHT22;67019;51.034;3.728;2023-01-19T04:47:42;0.60;95.50
77829;DHT22;67019;51.034;3.728;2023-01-19T04:50:11;0.60;95.60
77829;DHT22;67019;51.034;3.728;2023-01-19T04:52:38;0.50;95.70
77829;DHT22;67019;51.034;3.728;2023-01-19T04:55:06;2.20;96.00
77829;DHT22;67019;51.034;3.728;2023-01-19T04:57:34;0.50;95.50
77829;DHT22;67019;51.034;3.728;2023-01-19T05:00:03;0.40;95.40
77829;DHT22;67019;51.034;3.728;2023-01-19T05:02:32;0.70;94.70
77829;DHT22;67019;51.034;3.728;2023-01-19T05:04:59;0.50;95.20
77829;DHT22;67019;51.034;3.728;2023-01-19T05:07:27;0.40;95.60
77829;DHT22;67019;51.034;3.728;2023-01-19T05:09:55;0.30;95.60
77829;DHT22;67019;51.034;3.728;2023-01-19T05:12:22;0.30;95.80
77829;DHT22;67019;51.034;3.728;2023-01-19T05:14:50;0.30;95.80
77829;DHT22;67019;51.034;3.728;2023-01-19T05:17:17;0.20;95.90
77829;DHT22;67019;51.034;3.728;2023-01-19T05:19:45;0.20;95.80
77829;DHT22;67019;51.034;3.728;2023-01-19T05:22:14;0.30;95.90
77829;DHT22;67019;51.034;3.728;2023-01-19T05:24:42;0.30;95.90
77829;DHT22;67019;51.034;3.728;2023-01-19T05:27:10;0.30;95.70
77829;DHT22;67019;51.034;3.728;2023-01-19T05:29:37;0.30;95.70
77829;DHT22;67019;51.034;3.728;2023-01-19T05:32:05;0.30;95.90
77829;DHT22;67019;51.034;3.728;2023-01-19T05:34:32;0.30;95.70
77829;DHT22;67019;51.034;3.728;2023-01-19T05:37:00;0.20;96.00
77829;DHT22;67019;51.034;3.728;2023-01-19T05:39:28;0.20;96.00
77829;DHT22;67019;51.034;3.728;2023-01-19T05:41:56;0.20;95.90
77829;DHT22;67019;51.034;3.728;2023-01-19T05:44:23;0.20;96.00
77829;DHT22;67019;51.034;3.728;2023-01-19T05:46:51;0.30;96.20
77829;DHT22;67019;51.034;3.728;2023-01-19T05:49:18;0.30;95.60
77829;DHT22;67019;51.034;3.728;2023-01-19T05:51:46;0.40;95.70
77829;DHT22;67019;51.034;3.728;2023-01-19T05:54:14;0.30;95.80
77829;DHT22;67019;51.034;3.728;2023-01-19T05:56:42;0.30;95.80
77829;DHT22;67019;51.034;3.728;2023-01-19T05:59:10;0.20;95.80
77829;DHT22;67019;51.034;3.728;2023-01-19T06:01:37;0.30;96.00
77829;DHT22;67019;51.034;3.728;2023-01-19T06:04:05;0.30;95.90
77829;DHT22;67019;51.034;3.728;2023-01-19T06:06:33;0.40;95.90
77829;DHT22;67019;51.034;3.728;2023-01-19T06:09:01;0.40;96.00
77829;DHT22;67019;51.034;3.728;2023-01-19T06:11:28;0.40;95.80
77829;DHT22;67019;51.034;3.728;2023-01-19T06:13:56;0.50;95.80
77829;DHT22;67019;51.034;3.728;2023-01-19T06:16:23;0.50;95.90
77829;DHT22;67019;51.034;3.728;2023-01-19T06:18:51;0.50;95.90
77829;DHT22;67019;51.034;3.728;2023-01-19T06:21:19;0.50;95.80
77829;DHT22;67019;51.034;3.728;2023-01-19T06:23:46;0.50;95.80
77829;DHT22;67019;51.034;3.728;2023-01-19T06:26:14;0.60;96.10
77829;DHT22;67019;51.034;3.728;2023-01-19T06:28:41;0.60;95.70
77829;DHT22;67019;51.034;3.728;2023-01-19T06:31:09;0.50;95.90
77829;DHT22;67019;51.034;3.728;2023-01-19T06:33:37;-0.90;95.70
77829;DHT22;67019;51.034;3.728;2023-01-19T06:36:05;0.50;95.90
77829;DHT22;67019;51.034;3.728;2023-01-19T06:38:32;0.50;95.90
77829;DHT22;67019;51.034;3.728;2023-01-19T06:41:00;0.50;95.80
77829;DHT22;67019;51.034;3.728;2023-01-19T06:43:30;0.50;95.80
77829;DHT22;67019;51.034;3.728;2023-01-19T06:45:59;0.50;95.80
77829;DHT22;67019;51.034;3.728;2023-01-19T06:48:26;0.40;99.40
77829;DHT22;67019;51.034;3.728;2023-01-19T06:50:56;0.50;96.00
77829;DHT22;67019;51.034;3.728;2023-01-19T06:53:23;0.60;96.00
77829;DHT22;67019;51.034;3.728;2023-01-19T06:55:53;0.60;95.90
77829;DHT22;67019;51.034;3.728;2023-01-19T06:58:20;0.50;95.80
77829;DHT22;67019;51.034;3.728;2023-01-19T07:00:48;0.50;96.00
77829;DHT22;67019;51.034;3.728;2023-01-19T07:03:21;0.70;99.60
77829;DHT22;67019;51.034;3.728;2023-01-19T07:05:52;-1.30;95.60
77829;DHT22;67019;51.034;3.728;2023-01-19T07:08:20;0.50;95.90
77829;DHT22;67019;51.034;3.728;2023-01-19T07:10:48;0.80;99.50
77829;DHT22;67019;51.034;3.728;2023-01-19T07:13:16;0.50;95.90
77829;DHT22;67019;51.034;3.728;2023-01-19T07:15:45;0.60;96.20
77829;DHT22;67019;51.034;3.728;2023-01-19T07:18:12;0.60;95.80
77829;DHT22;67019;51.034;3.728;2023-01-19T07:20:41;0.50;96.00
77829;DHT22;67019;51.034;3.728;2023-01-19T07:23:10;0.60;95.90
77829;DHT22;67019;51.034;3.728;2023-01-19T07:25:38;0.70;95.80
77829;DHT22;67019;51.034;3.728;2023-01-19T07:28:06;0.70;95.80
77829;DHT22;67019;51.034;3.728;2023-01-19T07:30:33;0.70;95.80
77829;DHT22;67019;51.034;3.728;2023-01-19T07:33:01;0.90;95.50
77829;DHT22;67019;51.034;3.728;2023-01-19T07:35:29;0.90;96.90
77829;DHT22;67019;51.034;3.728;2023-01-19T07:37:58;0.90;95.60
77829;DHT22;67019;51.034;3.728;2023-01-19T07:40:25;1.10;95.30
77829;DHT22;67019;51.034;3.728;2023-01-19T07:42:53;1.30;94.30
77829;DHT22;67019;51.034;3.728;2023-01-19T07:47:51;0.90;99.00
77829;DHT22;67019;51.034;3.728;2023-01-19T07:52:55;1.00;95.10
77829;DHT22;67019;51.034;3.728;2023-01-19T07:55:23;1.10;95.50
77829;DHT22;67019;51.034;3.728;2023-01-19T07:57:51;1.10;95.70
77829;DHT22;67019;51.034;3.728;2023-01-19T08:00:21;1.10;98.90
77829;DHT22;67019;51.034;3.728;2023-01-19T08:02:57;1.10;99.10
77829;DHT22;67019;51.034;3.728;2023-01-19T08:05:23;1.00;95.40
77829;DHT22;67019;51.034;3.728;2023-01-19T08:07:51;1.00;95.50
77829;DHT22;67019;51.034;3.728;2023-01-19T08:10:19;1.00;95.70
77829;DHT22;67019;51.034;3.728;2023-01-19T08:12:48;1.00;95.90
77829;DHT22;67019;51.034;3.728;2023-01-19T08:15:16;1.00;96.30
77829;DHT22;67019;51.034;3.728;2023-01-19T08:17:43;1.10;95.90
77829;DHT22;67019;51.034;3.728;2023-01-19T08:20:12;1.10;96.20
77829;DHT22;67019;51.034;3.728;2023-01-19T08:22:39;1.10;96.10
77829;DHT22;67019;51.034;3.728;2023-01-19T08:25:07;1.20;96.10
77829;DHT22;67019;51.034;3.728;2023-01-19T08:27:35;1.20;95.80
77829;DHT22;67019;51.034;3.728;2023-01-19T08:30:03;1.30;95.70
77829;DHT22;67019;51.034;3.728;2023-01-19T08:32:31;1.30;95.30
77829;DHT22;67019;51.034;3.728;2023-01-19T08:34:58;1.20;95.70
77829;DHT22;67019;51.034;3.728;2023-01-19T08:37:26;1.10;96.10
77829;DHT22;67019;51.034;3.728;2023-01-19T08:39:53;1.10;96.10
77829;DHT22;67019;51.034;3.728;2023-01-19T08:42:21;1.10;96.10
77829;DHT22;67019;51.034;3.728;2023-01-19T08:44:49;1.20;96.60
77829;DHT22;67019;51.034;3.728;2023-01-19T08:47:16;1.20;96.20
77829;DHT22;67019;51.034;3.728;2023-01-19T08:49:44;1.30;96.10
77829;DHT22;67019;51.034;3.728;2023-01-19T08:52:11;1.30;96.00
77829;DHT22;67019;51.034;3.728;2023-01-19T08:54:39;1.30;96.00
77829;DHT22;67019;51.034;3.728;2023-01-19T08:57:07;1.40;95.90
77829;DHT22;67019;51.034;3.728;2023-01-19T08:59:34;1.40;95.80
77829;DHT22;67019;51.034;3.728;2023-01-19T09:02:03;1.40;95.80
77829;DHT22;67019;51.034;3.728;2023-01-19T09:04:31;1.40;95.70
77829;DHT22;67019;51.034;3.728;2023-01-19T09:07:00;1.30;96.00
77829;DHT22;67019;51.034;3.728;2023-01-19T09:09:27;1.40;96.10
77829;DHT22;67019;51.034;3.728;2023-01-19T09:11:56;1.40;96.10
77829;DHT22;67019;51.034;3.728;2023-01-19T09:14:24;1.60;96.00
77829;DHT22;67019;51.034;3.728;2023-01-19T09:16:52;1.60;95.50
77829;DHT22;67019;51.034;3.728;2023-01-19T09:19:21;1.50;95.80
77829;DHT22;67019;51.034;3.728;2023-01-19T09:21:48;1.50;96.20
77829;DHT22;67019;51.034;3.728;2023-01-19T09:24:16;1.60;95.50
77829;DHT22;67019;51.034;3.728;2023-01-19T09:26:44;1.50;95.50
77829;DHT22;67019;51.034;3.728;2023-01-19T09:29:13;1.40;96.20
77829;DHT22;67019;51.034;3.728;2023-01-19T09:31:41;1.50;95.70
77829;DHT22;67019;51.034;3.728;2023-01-19T09:36:38;1.90;94.10
77829;DHT22;67019;51.034;3.728;2023-01-19T09:39:05;1.80;98.50
77829;DHT22;67019;51.034;3.728;2023-01-19T09:41:34;1.70;98.70
77829;DHT22;67019;51.034;3.728;2023-01-19T09:44:03;1.70;95.50
77829;DHT22;67019;51.034;3.728;2023-01-19T09:46:36;2.00;94.60
77829;DHT22;67019;51.034;3.728;2023-01-19T09:49:15;1.90;94.40
77829;DHT22;67019;51.034;3.728;2023-01-19T09:51:46;2.30;93.20
77829;DHT22;67019;51.034;3.728;2023-01-19T09:54:20;1.80;97.10
77829;DHT22;67019;51.034;3.728;2023-01-19T09:56:49;2.30;97.00
77829;DHT22;67019;51.034;3.728;2023-01-19T09:59:25;2.10;93.90
77829;DHT22;67019;51.034;3.728;2023-01-19T10:04:42;2.10;94.10
77829;DHT22;67019;51.034;3.728;2023-01-19T10:07:38;2.20;93.80
77829;DHT22;67019;51.034;3.728;2023-01-19T10:12:52;2.20;93.30
77829;DHT22;67019;51.034;3.728;2023-01-19T10:15:38;2.00;94.40
77829;DHT22;67019;51.034;3.728;2023-01-19T10:18:17;1.90;94.90
77829;DHT22;67019;51.034;3.728;2023-01-19T10:20:52;1.80;94.90
77829;DHT22;67019;51.034;3.728;2023-01-19T10:26:08;2.00;94.10
77829;DHT22;67019;51.034;3.728;2023-01-19T10:28:37;2.00;94.30
77829;DHT22;67019;51.034;3.728;2023-01-19T10:31:06;2.50;97.00
77829;DHT22;67019;51.034;3.728;2023-01-19T10:33:38;2.30;94.00
77829;DHT22;67019;51.034;3.728;2023-01-19T10:36:19;2.20;94.20
77829;DHT22;67019;51.034;3.728;2023-01-19T10:38:47;2.40;93.50
77829;DHT22;67019;51.034;3.728;2023-01-19T10:41:25;2.70;93.10
77829;DHT22;67019;51.034;3.728;2023-01-19T10:44:01;2.80;92.50
77829;DHT22;67019;51.034;3.728;2023-01-19T10:46:41;2.40;93.50
77829;DHT22;67019;51.034;3.728;2023-01-19T10:51:49;2.40;94.00
77829;DHT22;67019;51.034;3.728;2023-01-19T10:54:18;2.40;94.00
77829;DHT22;67019;51.034;3.728;2023-01-19T10:56:54;2.50;93.90
77829;DHT22;67019;51.034;3.728;2023-01-19T10:59:53;2.80;92.80
77829;DHT22;67019;51.034;3.728;2023-01-19T11:02:15;2.60;93.10
77829;DHT22;67019;51.034;3.728;2023-01-19T11:04:43;2.50;93.80
77829;DHT22;67019;51.034;3.728;2023-01-19T11:07:21;2.70;93.60
77829;DHT22;67019;51.034;3.728;2023-01-19T11:12:58;3.10;92.20
77829;DHT22;67019;51.034;3.728;2023-01-19T11:17:52;3.00;95.30
77829;DHT22;67019;51.034;3.728;2023-01-19T11:20:22;3.40;92.90
77829;DHT22;67019;51.034;3.728;2023-01-19T11:23:28;3.60;92.10
77829;DHT22;67019;51.034;3.728;2023-01-19T11:25:37;3.40;92.10
77829;DHT22;67019;51.034;3.728;2023-01-19T11:28:16;3.70;92.00
77829;DHT22;67019;51.034;3.728;2023-01-19T11:31:01;3.50;90.90
77829;DHT22;67019;51.034;3.728;2023-01-19T11:33:57;3.10;92.60
77829;DHT22;67019;51.034;3.728;2023-01-19T11:36:26;2.90;93.00
77829;DHT22;67019;51.034;3.728;2023-01-19T11:38:56;3.00;92.20
77829;DHT22;67019;51.034;3.728;2023-01-19T11:41:33;2.60;93.20
77829;DHT22;67019;51.034;3.728;2023-01-19T11:44:28;2.80;95.80
77829;DHT22;67019;51.034;3.728;2023-01-19T11:46:59;2.60;92.70
77829;DHT22;67019;51.034;3.728;2023-01-19T11:49:39;2.60;93.20
77829;DHT22;67019;51.034;3.728;2023-01-19T11:55:11;2.90;92.40
77829;DHT22;67019;51.034;3.728;2023-01-19T11:57:33;2.80;93.00
77829;DHT22;67019;51.034;3.728;2023-01-19T12:00:03;2.90;92.90
77829;DHT22;67019;51.034;3.728;2023-01-19T12:02:47;3.00;92.80
77829;DHT22;67019;51.034;3.728;2023-01-19T12:05:17;3.00;92.80
77829;DHT22;67019;51.034;3.728;2023-01-19T12:07:46;3.30;92.10
77829;DHT22;67019;51.034;3.728;2023-01-19T12:10:30;3.60;91.70
77829;DHT22;67019;51.034;3.728;2023-01-19T12:12:59;3.70;90.70
77829;DHT22;67019;51.034;3.728;2023-01-19T12:15:41;3.70;90.50
77829;DHT22;67019;51.034;3.728;2023-01-19T12:18:14;3.10;91.10
77829;DHT22;67019;51.034;3.728;2023-01-19T12:20:43;3.20;94.80
77829;DHT22;67019;51.034;3.728;2023-01-19T12:28:49;3.30;93.50
77829;DHT22;67019;51.034;3.728;2023-01-19T12:31:15;3.30;91.00
77829;DHT22;67019;51.034;3.728;2023-01-19T12:33:42;3.30;91.20
77829;DHT22;67019;51.034;3.728;2023-01-19T12:41:38;3.00;91.40
77829;DHT22;67019;51.034;3.728;2023-01-19T12:47:16;3.20;93.30
77829;DHT22;67019;51.034;3.728;2023-01-19T12:55:35;3.20;91.00
77829;DHT22;67019;51.034;3.728;2023-01-19T13:00:44;3.20;90.70
77829;DHT22;67019;51.034;3.728;2023-01-19T13:05:51;3.20;90.60
77829;DHT22;67019;51.034;3.728;2023-01-19T13:08:20;3.30;90.40
77829;DHT22;67019;51.034;3.728;2023-01-19T13:26:33;3.60;91.60
77829;DHT22;67019;51.034;3.728;2023-01-19T13:29:07;3.00;91.50
77829;DHT22;67019;51.034;3.728;2023-01-19T13:31:38;3.20;93.60
77829;DHT22;67019;51.034;3.728;2023-01-19T13:34:15;3.30;91.10
77829;DHT22;67019;51.034;3.728;2023-01-19T13:36:50;3.30;90.60
77829;DHT22;67019;51.034;3.728;2023-01-19T13:39:30;3.20;90.90
77829;DHT22;67019;51.034;3.728;2023-01-19T13:42:11;3.30;90.70
77829;DHT22;67019;51.034;3.728;2023-01-19T13:44:40;3.40;90.50
77829;DHT22;67019;51.034;3.728;2023-01-19T13:47:17;3.30;93.60
77829;DHT22;67019;51.034;3.728;2023-01-19T13:49:41;3.30;90.90
77829;DHT22;67019;51.034;3.728;2023-01-19T13:52:24;3.50;90.50
77829;DHT22;67019;51.034;3.728;2023-01-19T13:54:56;3.10;91.30
77829;DHT22;67019;51.034;3.728;2023-01-19T13:57:26;3.20;91.60
77829;DHT22;67019;51.034;3.728;2023-01-19T14:02:57;3.30;91.00
77829;DHT22;67019;51.034;3.728;2023-01-19T14:05:30;3.20;90.80
77829;DHT22;67019;51.034;3.728;2023-01-19T14:10:33;3.10;91.30
77829;DHT22;67019;51.034;3.728;2023-01-19T14:13:03;3.20;91.70
77829;DHT22;67019;51.034;3.728;2023-01-19T14:15:32;3.00;91.10
77829;DHT22;67019;51.034;3.728;2023-01-19T14:21:00;3.10;91.30
77829;DHT22;67019;51.034;3.728;2023-01-19T14:31:27;3.20;90.90
77829;DHT22;67019;51.034;3.728;2023-01-19T14:41:46;3.10;91.10
77829;DHT22;67019;51.034;3.728;2023-01-19T14:44:34;3.30;91.00
77829;DHT22;67019;51.034;3.728;2023-01-19T14:47:03;2.20;90.40
77829;DHT22;67019;51.034;3.728;2023-01-19T14:49:39;3.10;91.20
77829;DHT22;67019;51.034;3.728;2023-01-19T14:52:25;3.30;90.70
77829;DHT22;67019;51.034;3.728;2023-01-19T14:54:54;3.30;90.40
77829;DHT22;67019;51.034;3.728;2023-01-19T14:57:25;3.20;91.00
77829;DHT22;67019;51.034;3.728;2023-01-19T14:59:52;3.10;91.50
77829;DHT22;67019;51.034;3.728;2023-01-19T15:02:21;3.20;93.80
77829;DHT22;67019;51.034;3.728;2023-01-19T15:04:49;3.10;91.30
77829;DHT22;67019;51.034;3.728;2023-01-19T15:07:18;3.00;91.70
77829;DHT22;67019;51.034;3.728;2023-01-19T15:09:46;4.60;91.60
77829;DHT22;67019;51.034;3.728;2023-01-19T15:12:15;3.10;94.10
77829;DHT22;67019;51.034;3.728;2023-01-19T15:14:46;3.30;91.40
77829;DHT22;67019;51.034;3.728;2023-01-19T15:17:16;2.90;93.90
77829;DHT22;67019;51.034;3.728;2023-01-19T15:19:45;3.10;94.30
77829;DHT22;67019;51.034;3.728;2023-01-19T15:22:13;3.10;91.80
77829;DHT22;67019;51.034;3.728;2023-01-19T15:24:41;3.00;92.30
77829;DHT22;67019;51.034;3.728;2023-01-19T15:27:10;3.10;91.20
77829;DHT22;67019;51.034;3.728;2023-01-19T15:29:38;3.00;91.40
77829;DHT22;67019;51.034;3.728;2023-01-19T15:32:12;2.90;92.00
77829;DHT22;67019;51.034;3.728;2023-01-19T15:34:36;3.00;91.50
77829;DHT22;67019;51.034;3.728;2023-01-19T15:37:03;2.80;92.00
77829;DHT22;67019;51.034;3.728;2023-01-19T15:39:33;2.90;94.20
77829;DHT22;67019;51.034;3.728;2023-01-19T15:42:00;2.80;91.80
77829;DHT22;67019;51.034;3.728;2023-01-19T15:44:29;2.70;92.10
77829;DHT22;67019;51.034;3.728;2023-01-19T15:46:57;2.50;92.80
77829;DHT22;67019;51.034;3.728;2023-01-19T15:49:25;2.40;92.50
77829;DHT22;67019;51.034;3.728;2023-01-19T15:51:53;2.50;92.70
77829;DHT22;67019;51.034;3.728;2023-01-19T15:54:20;2.30;92.70
77829;DHT22;67019;51.034;3.728;2023-01-19T15:56:49;2.20;93.70
77829;DHT22;67019;51.034;3.728;2023-01-19T15:59:18;2.00;93.10
77829;DHT22;67019;51.034;3.728;2023-01-19T16:01:45;1.90;96.20
77829;DHT22;67019;51.034;3.728;2023-01-19T16:04:16;2.10;96.00
77829;DHT22;67019;51.034;3.728;2023-01-19T16:06:43;2.20;95.60
77829;DHT22;67019;51.034;3.728;2023-01-19T16:09:11;2.10;96.30
77829;DHT22;67019;51.034;3.728;2023-01-19T16:14:08;2.20;92.70
77829;DHT22;67019;51.034;3.728;2023-01-19T16:16:36;2.50;95.90
77829;DHT22;67019;51.034;3.728;2023-01-19T16:19:05;1.90;96.40
77829;DHT22;67019;51.034;3.728;2023-01-19T16:21:33;1.90;94.40
77829;DHT22;67019;51.034;3.728;2023-01-19T16:24:01;2.00;93.30
77829;DHT22;67019;51.034;3.728;2023-01-19T16:26:31;2.10;93.10
77829;DHT22;67019;51.034;3.728;2023-01-19T16:29:06;1.80;93.50
77829;DHT22;67019;51.034;3.728;2023-01-19T16:31:32;1.80;94.00
77829;DHT22;67019;51.034;3.728;2023-01-19T16:33:59;2.10;93.20
77829;DHT22;67019;51.034;3.728;2023-01-19T16:36:32;2.40;92.30
77829;DHT22;67019;51.034;3.728;2023-01-19T16:39:01;2.40;91.80
77829;DHT22;67019;51.034;3.728;2023-01-19T16:41:29;2.60;95.50
77829;DHT22;67019;51.034;3.728;2023-01-19T16:43:57;2.20;92.80
77829;DHT22;67019;51.034;3.728;2023-01-19T16:49:04;2.10;93.00
77829;DHT22;67019;51.034;3.728;2023-01-19T16:51:32;2.30;92.20
77829;DHT22;67019;51.034;3.728;2023-01-19T16:53:59;1.80;93.60
77829;DHT22;67019;51.034;3.728;2023-01-19T16:56:27;1.80;93.80
77829;DHT22;67019;51.034;3.728;2023-01-19T16:58:56;1.20;97.60
77829;DHT22;67019;51.034;3.728;2023-01-19T17:09:07;1.90;93.30
77829;DHT22;67019;51.034;3.728;2023-01-19T17:11:36;2.00;96.40
77829;DHT22;67019;51.034;3.728;2023-01-19T17:14:09;2.00;93.40
77829;DHT22;67019;51.034;3.728;2023-01-19T17:16:35;2.10;93.30
77829;DHT22;67019;51.034;3.728;2023-01-19T17:19:05;2.10;93.50
77829;DHT22;67019;51.034;3.728;2023-01-19T17:21:33;2.10;92.70
77829;DHT22;67019;51.034;3.728;2023-01-19T17:24:01;2.20;96.20
77829;DHT22;67019;51.034;3.728;2023-01-19T17:26:29;2.10;93.00
77829;DHT22;67019;51.034;3.728;2023-01-19T17:28:58;2.10;92.90
77829;DHT22;67019;51.034;3.728;2023-01-19T17:31:28;2.20;92.70
77829;DHT22;67019;51.034;3.728;2023-01-19T17:33:58;1.90;93.70
77829;DHT22;67019;51.034;3.728;2023-01-19T17:36:29;2.00;94.00
77829;DHT22;67019;51.034;3.728;2023-01-19T17:38:59;1.80;93.70
77829;DHT22;67019;51.034;3.728;2023-01-19T17:41:29;1.40;94.80
77829;DHT22;67019;51.034;3.728;2023-01-19T17:43:58;0.90;94.50
77829;DHT22;67019;51.034;3.728;2023-01-19T17:46:27;1.40;94.90
77829;DHT22;67019;51.034;3.728;2023-01-19T17:48:59;1.50;95.10
77829;DHT22;67019;51.034;3.728;2023-01-19T17:51:28;1.90;94.90
77829;DHT22;67019;51.034;3.728;2023-01-19T17:53:57;1.60;94.60
77829;DHT22;67019;51.034;3.728;2023-01-19T17:56:27;1.40;95.30
77829;DHT22;67019;51.034;3.728;2023-01-19T17:58:56;1.20;95.50
77829;DHT22;67019;51.034;3.728;2023-01-19T18:01:29;1.30;98.70
77829;DHT22;67019;51.034;3.728;2023-01-19T18:03:57;1.40;98.10
77829;DHT22;67019;51.034;3.728;2023-01-19T18:06:26;1.50;94.90